Time;durP1;ratioP1;P1;durP2;ratioP2;P2;SDS_P1;SDS_P2;PMS_P1;PMS_P2;Temp;Humidity;BMP_temperature;BMP_pressure;BME280_temperature;BME280_humidity;BME280_pressure;Samples;Min_cycle;Max_cycle;Signal;HPM_P1;HPM_P2
2021/09/25 06:00:57;;;;;;;14.73;10.55;;;12.30;99.90;;;;;;5751063;23;20564;-88
2021/09/25 06:03:24;;;;;;;12.82;11.15;;;12.30;99.90;;;;;;4988110;28;20054;-87
2021/09/25 06:05:52;;;;;;;16.63;11.65;;;12.30;99.90;;;;;;4991014;28;20046;-88
2021/09/25 06:08:19;;;;;;;23.08;13.90;;;12.30;99.90;;;;;;4971151;28;20053;-88
2021/09/25 06:10:46;;;;;;;13.52;10.82;;;12.30;99.90;;;;;;4995007;28;20038;-88
2021/09/25 06:13:13;;;;;;;13.82;9.95;;;12.40;99.90;;;;;;4955742;28;20055;-87
2021/09/25 06:15:40;;;;;;;12.88;11.10;;;12.40;99.90;;;;;;4962816;28;20110;-87
2021/09/25 06:18:07;;;;;;;13.40;10.88;;;12.40;99.90;;;;;;4987137;28;20046;-88
2021/09/25 06:20:34;;;;;;;13.88;10.82;;;12.40;99.90;;;;;;4963538;28;20049;-86
2021/09/25 06:23:01;;;;;;;16.90;10.50;;;12.50;99.90;;;;;;4972237;28;20059;-87
2021/09/25 06:25:28;;;;;;;12.07;10.70;;;12.50;99.90;;;;;;4982309;28;20043;-87
2021/09/25 06:27:55;;;;;;;12.38;10.88;;;12.50;99.90;;;;;;4973659;28;20046;-87
2021/09/25 06:30:22;;;;;;;12.07;10.77;;;12.50;99.90;;;;;;4979971;28;20054;-87
2021/09/25 06:32:49;;;;;;;14.02;11.63;;;12.60;99.90;;;;;;4977719;28;20063;-88
2021/09/25 06:35:16;;;;;;;15.07;11.82;;;12.60;99.90;;;;;;4963480;28;20567;-84
2021/09/25 06:37:43;;;;;;;17.75;13.00;;;12.60;99.90;;;;;;4963501;28;20078;-88
2021/09/25 06:40:11;;;;;;;14.55;12.98;;;12.60;99.90;;;;;;4981942;28;20054;-88
2021/09/25 06:42:39;;;;;;;14.55;12.35;;;12.60;99.90;;;;;;4983888;28;20494;-87
2021/09/25 06:45:07;;;;;;;14.35;11.75;;;12.70;99.90;;;;;;4965834;28;20042;-88
2021/09/25 06:47:35;;;;;;;14.03;10.97;;;12.70;99.90;;;;;;4963903;28;20054;-86
2021/09/25 06:50:03;;;;;;;11.25;9.82;;;12.70;99.90;;;;;;4983091;28;20298;-90
2021/09/25 06:52:30;;;;;;;12.65;9.95;;;12.70;99.90;;;;;;4953002;28;20039;-85
2021/09/25 06:54:57;;;;;;;10.82;9.73;;;12.80;99.90;;;;;;4980353;28;20117;-88
2021/09/25 06:57:25;;;;;;;12.45;9.77;;;12.80;99.90;;;;;;4986270;28;20058;-88
2021/09/25 06:59:52;;;;;;;11.70;9.93;;;12.90;99.90;;;;;;4995818;28;20045;-88
2021/09/25 07:02:20;;;;;;;11.30;9.20;;;12.90;99.90;;;;;;4997293;28;20054;-89
2021/09/25 07:04:47;;;;;;;12.85;10.13;;;13.00;99.90;;;;;;4993314;28;20038;-89
2021/09/25 07:07:14;;;;;;;11.43;9.38;;;13.00;99.90;;;;;;4975115;28;20046;-89
2021/09/25 07:09:45;;;;;;;12.45;9.60;;;13.10;99.90;;;;;;4973760;28;20046;-89
2021/09/25 07:12:11;;;;;;;11.15;9.30;;;13.10;99.90;;;;;;5002418;28;20508;-89
2021/09/25 07:14:38;;;;;;;10.52;9.25;;;13.20;99.90;;;;;;4993095;28;20065;-88
2021/09/25 07:17:05;;;;;;;12.50;8.88;;;13.20;99.90;;;;;;4988557;28;20072;-89
2021/09/25 07:19:32;;;;;;;9.75;8.75;;;13.20;99.90;;;;;;4994920;28;20042;-90
2021/09/25 07:21:59;;;;;;;9.52;8.52;;;13.30;99.90;;;;;;4978290;28;20566;-89
2021/09/25 07:24:26;;;;;;;10.32;8.55;;;13.40;99.90;;;;;;4990499;28;20496;-90
2021/09/25 07:26:53;;;;;;;10.63;8.90;;;13.40;99.90;;;;;;4988375;28;20046;-90
2021/09/25 07:29:20;;;;;;;10.32;8.90;;;13.50;99.90;;;;;;4960050;28;20061;-89
2021/09/25 07:31:47;;;;;;;10.60;9.50;;;13.50;99.90;;;;;;4972685;28;20066;-88
2021/09/25 07:34:14;;;;;;;10.35;9.02;;;13.60;99.90;;;;;;4978462;28;20114;-90
2021/09/25 07:36:41;;;;;;;11.95;8.80;;;13.60;99.90;;;;;;4992752;28;20122;-89
2021/09/25 07:39:08;;;;;;;10.88;8.80;;;13.70;99.90;;;;;;4974886;28;20485;-89
2021/09/25 07:41:36;;;;;;;10.40;8.30;;;13.70;99.90;;;;;;4976665;28;20042;-89
2021/09/25 07:44:04;;;;;;;12.55;8.52;;;13.80;99.90;;;;;;4986213;28;20058;-90
2021/09/25 07:46:32;;;;;;;10.23;8.67;;;13.80;99.90;;;;;;4987301;28;20113;-91
2021/09/25 07:49:00;;;;;;;9.15;7.75;;;13.90;99.90;;;;;;4972902;28;20333;-90
2021/09/25 07:51:28;;;;;;;9.68;8.52;;;14.00;99.90;;;;;;4990780;28;20066;-90
2021/09/25 07:53:55;;;;;;;10.07;9.00;;;14.10;99.90;;;;;;4988573;28;20062;-89
2021/09/25 07:56:22;;;;;;;8.70;7.90;;;14.10;99.90;;;;;;4972128;28;20082;-90
2021/09/25 07:58:49;;;;;;;9.00;8.10;;;14.20;99.90;;;;;;4989332;28;20054;-90
2021/09/25 08:01:16;;;;;;;9.70;8.57;;;14.30;99.90;;;;;;4987829;28;20050;-90
2021/09/25 08:03:44;;;;;;;8.50;7.53;;;14.30;99.90;;;;;;4989783;28;20085;-91
2021/09/25 08:06:11;;;;;;;10.10;8.38;;;14.40;99.90;;;;;;4988835;28;20054;-91
2021/09/25 08:08:39;;;;;;;11.15;7.78;;;14.50;99.90;;;;;;4972393;28;20038;-91
2021/09/25 08:11:06;;;;;;;8.88;6.95;;;14.60;99.90;;;;;;4985861;28;20049;-90
2021/09/25 08:13:33;;;;;;;8.65;7.40;;;14.60;99.90;;;;;;4972442;28;20046;-91
2021/09/25 08:16:01;;;;;;;8.82;6.85;;;14.70;99.90;;;;;;4986854;28;20517;-91
2021/09/25 08:18:29;;;;;;;8.68;7.88;;;14.80;99.90;;;;;;4986724;28;20058;-91
2021/09/25 08:20:56;;;;;;;8.40;7.60;;;14.90;99.90;;;;;;4972748;28;20117;-92
2021/09/25 08:23:23;;;;;;;13.45;8.05;;;15.10;99.90;;;;;;4971791;28;20098;-93
2021/09/25 08:25:53;;;;;;;8.35;7.38;;;15.20;99.90;;;;;;4967519;28;20542;-93
2021/09/25 08:28:20;;;;;;;8.00;7.18;;;15.30;99.90;;;;;;4992515;28;20042;-93
2021/09/25 08:30:47;;;;;;;7.53;6.80;;;15.50;99.90;;;;;;4970621;28;20130;-93
2021/09/25 08:33:14;;;;;;;8.15;7.28;;;15.60;99.90;;;;;;4972328;28;20050;-93
2021/09/25 08:35:41;;;;;;;8.38;7.50;;;15.60;99.90;;;;;;4971129;28;20093;-95
2021/09/25 08:38:13;;;;;;;9.00;7.82;;;15.70;99.90;;;;;;4971320;28;20058;-91
2021/09/25 08:40:40;;;;;;;8.65;7.57;;;15.90;99.90;;;;;;4988440;28;20050;-92
2021/09/25 08:43:07;;;;;;;8.18;7.20;;;16.00;99.90;;;;;;4988988;28;20057;-94
2021/09/25 08:45:38;;;;;;;8.00;7.20;;;16.20;99.90;;;;;;4993002;28;20109;-93
2021/09/25 08:48:05;;;;;;;8.93;7.93;;;16.30;99.90;;;;;;4996015;28;20054;-94
2021/09/25 08:50:33;;;;;;;10.60;8.63;;;16.50;99.90;;;;;;4998151;28;20703;-93
2021/09/25 08:53:00;;;;;;;9.30;7.63;;;16.60;99.90;;;;;;4994774;28;20537;-94
2021/09/25 08:55:27;;;;;;;9.98;7.85;;;16.70;99.90;;;;;;4998161;28;20046;-93
2021/09/25 08:57:57;;;;;;;8.55;7.75;;;16.90;99.90;;;;;;4976961;28;20070;-92
2021/09/25 09:00:25;;;;;;;8.20;7.40;;;17.00;99.90;;;;;;4994318;28;20081;-96
2021/09/25 09:03:32;;;;;;;9.27;7.55;;;17.20;99.90;;;;;;4998503;28;20054;-94
2021/09/25 09:06:23;;;;;;;11.75;7.72;;;17.40;99.90;;;;;;4991017;28;20056;-95
2021/09/25 09:08:58;;;;;;;8.27;7.30;;;17.50;99.90;;;;;;4977377;28;20098;-93
2021/09/25 09:11:27;;;;;;;10.40;8.65;;;17.60;99.90;;;;;;4974537;28;20074;-94
2021/09/25 09:14:00;;;;;;;9.52;7.05;;;17.70;99.90;;;;;;4977687;28;20053;-93
2021/09/25 09:16:28;;;;;;;10.90;8.65;;;17.80;99.90;;;;;;4976125;28;20050;-93
2021/09/25 09:18:59;;;;;;;8.77;7.93;;;17.90;99.90;;;;;;4975867;28;20062;-95
2021/09/25 09:21:29;;;;;;;9.00;8.10;;;18.00;99.90;;;;;;4976809;28;20464;-94
2021/09/25 09:24:08;;;;;;;10.07;8.50;;;18.10;99.90;;;;;;4993539;28;20054;-93
2021/09/25 09:26:41;;;;;;;10.05;8.05;;;18.20;99.90;;;;;;4993240;28;20042;-93
2021/09/25 09:29:09;;;;;;;11.95;8.57;;;18.40;99.90;;;;;;4975605;28;20138;-95
2021/09/25 09:31:38;;;;;;;9.57;8.53;;;18.50;99.90;;;;;;4990488;28;20117;-95
2021/09/25 09:34:07;;;;;;;;;;;18.60;99.90;;;;;;4993237;28;20054;-94
2021/09/25 09:36:42;;;;;;;9.77;7.32;;;18.60;99.90;;;;;;4977417;28;19996;-95
2021/09/25 09:39:18;;;;;;;9.85;8.52;;;18.60;99.90;;;;;;4992743;28;20050;-94
2021/09/25 09:41:49;;;;;;;10.05;7.80;;;18.60;99.90;;;;;;4965191;28;20049;-94
2021/09/25 09:44:22;;;;;;;9.23;8.05;;;18.50;99.90;;;;;;4970647;28;20074;-95
2021/09/25 09:46:49;;;;;;;8.50;7.50;;;18.50;99.90;;;;;;4976303;28;20043;-94
2021/09/25 09:49:20;;;;;;;8.25;7.45;;;18.50;99.90;;;;;;4974292;28;20042;-95
2021/09/25 09:51:53;;;;;;;8.25;7.55;;;18.50;99.90;;;;;;4993544;28;20129;-95
2021/09/25 09:54:29;;;;;;;8.68;7.40;;;18.60;99.90;;;;;;4992347;28;20050;-96
2021/09/25 09:57:16;;;;;;;8.02;7.22;;;18.60;99.90;;;;;;4977071;28;20472;-96
2021/09/25 09:59:45;;;;;;;7.55;6.85;;;18.60;99.90;;;;;;4998446;28;20114;-96
2021/09/25 10:02:13;;;;;;;8.25;7.45;;;18.60;99.90;;;;;;4976600;28;20042;-95
2021/09/25 10:04:40;;;;;;;7.78;7.00;;;18.60;99.90;;;;;;4984618;28;20049;-94
2021/09/25 10:07:08;;;;;;;9.10;7.68;;;18.60;99.90;;;;;;4990298;28;20082;-95
2021/09/25 10:09:38;;;;;;;8.45;7.20;;;18.60;99.90;;;;;;4993562;28;20054;-93
2021/09/25 10:12:08;;;;;;;8.95;8.15;;;18.60;99.90;;;;;;4975842;28;20046;-95
2021/09/25 10:14:38;;;;;;;9.95;7.57;;;18.60;99.90;;;;;;4975891;28;20105;-95
2021/09/25 10:17:10;;;;;;;9.60;8.52;;;18.60;99.90;;;;;;4973155;28;20054;-95
2021/09/25 10:19:40;;;;;;;10.93;8.68;;;18.50;99.90;;;;;;4975992;28;20101;-95
2021/09/25 10:22:21;;;;;;;9.07;7.97;;;18.60;99.90;;;;;;4975391;28;20050;-94
2021/09/25 10:24:54;;;;;;;9.20;7.75;;;18.50;99.90;;;;;;4988652;28;20055;-95
2021/09/25 10:27:27;;;;;;;10.57;8.27;;;18.60;99.90;;;;;;4959875;28;20364;-94
2021/09/25 10:30:03;;;;;;;10.65;9.55;;;18.60;99.90;;;;;;4988927;28;20508;-94
2021/09/25 10:32:35;;;;;;;11.00;9.95;;;18.60;99.90;;;;;;4961220;28;20054;-94
2021/09/25 10:35:20;;;;;;;10.32;9.30;;;18.60;99.90;;;;;;4984279;28;20050;-93
2021/09/25 10:37:51;;;;;;;11.00;9.73;;;18.60;99.90;;;;;;4988147;28;20038;-93
2021/09/25 10:40:40;;;;;;;10.35;9.32;;;18.70;99.90;;;;;;4988259;28;20121;-95
2021/09/25 10:43:16;;;;;;;11.27;10.05;;;18.80;99.90;;;;;;4990707;28;20042;-94
2021/09/25 10:45:46;;;;;;;9.35;8.45;;;19.00;99.90;;;;;;4972574;28;20052;-96
2021/09/25 10:48:27;;;;;;;9.50;8.60;;;19.10;99.90;;;;;;4986418;28;20046;-95
2021/09/25 10:51:00;;;;;;;10.52;9.45;;;19.20;99.90;;;;;;4970562;28;20436;-94
2021/09/25 10:53:32;;;;;;;9.68;8.43;;;19.40;99.90;;;;;;4982616;28;20505;-95
2021/09/25 10:56:03;;;;;;;9.45;8.65;;;19.50;99.90;;;;;;4982063;28;20187;-94
2021/09/25 10:58:31;;;;;;;8.98;8.07;;;19.50;99.90;;;;;;4958585;28;20107;-95
2021/09/25 11:01:11;;;;;;;;;;;19.70;99.90;;;;;;4979167;28;20063;-95
2021/09/25 11:03:47;;;;;;;12.55;9.38;;;19.70;99.90;;;;;;4964606;28;19958;-94
2021/09/25 11:06:39;;;;;;;10.70;9.70;;;19.80;99.90;;;;;;4957837;28;20090;-95
2021/09/25 11:09:28;;;;;;;9.27;8.25;;;19.90;99.90;;;;;;4971587;28;20054;-94
2021/09/25 11:12:05;;;;;;;10.07;9.07;;;20.10;99.90;;;;;;4966116;28;20081;-95
2021/09/25 11:14:43;;;;;;;11.43;8.57;;;20.20;99.90;;;;;;4961829;28;20458;-94
2021/09/25 11:17:15;;;;;;;10.75;9.73;;;20.30;99.90;;;;;;4963785;28;20536;-93
2021/09/25 11:20:01;;;;;;;11.10;9.90;;;20.40;99.90;;;;;;4959648;28;20047;-96
2021/09/25 11:22:43;;;;;;;10.55;9.30;;;20.50;99.90;;;;;;4945539;28;20098;-95
2021/09/25 11:25:17;;;;;;;10.32;9.20;;;20.50;99.90;;;;;;4958407;28;20544;-95
2021/09/25 11:27:47;;;;;;;10.73;8.95;;;20.60;99.90;;;;;;4969257;28;20047;-93
2021/09/25 11:30:19;;;;;;;8.30;7.60;;;20.60;99.90;;;;;;4967268;28;20094;-93
2021/09/25 11:32:53;;;;;;;7.72;6.70;;;20.80;99.90;;;;;;4967162;28;20485;-94
2021/09/25 11:35:36;;;;;;;10.40;7.78;;;20.90;99.90;;;;;;4963291;28;20047;-91
2021/09/25 11:38:11;;;;;;;9.65;7.30;;;21.00;99.90;;;;;;4965066;28;20051;-95
2021/09/25 11:40:42;;;;;;;8.73;7.13;;;21.00;99.90;;;;;;4948479;28;20046;-94
2021/09/25 11:43:14;;;;;;;11.40;8.57;;;21.00;99.90;;;;;;4963765;28;20047;-94
2021/09/25 11:45:49;;;;;;;9.88;8.80;;;21.10;99.90;;;;;;4965670;28;20442;-93
2021/09/25 11:48:23;;;;;;;8.45;7.65;;;21.10;99.90;;;;;;4964769;28;20505;-92
2021/09/25 11:50:52;;;;;;;9.30;8.40;;;21.10;99.90;;;;;;4947848;28;20046;-93
2021/09/25 11:53:22;;;;;;;9.27;8.50;;;21.10;99.90;;;;;;4968023;28;20046;-92
2021/09/25 11:55:50;;;;;;;8.50;7.68;;;21.20;99.90;;;;;;4964261;28;20043;-94
2021/09/25 11:58:20;;;;;;;11.88;8.90;;;21.20;99.90;;;;;;4941241;28;20060;-94
2021/09/25 12:00:53;;;;;;;9.13;8.23;;;21.30;99.90;;;;;;4937746;28;20558;-92
2021/09/25 12:03:22;;;;;;;8.75;7.95;;;21.30;99.90;;;;;;4953012;28;20137;-95
2021/09/25 12:05:57;;;;;;;8.75;7.85;;;21.40;99.90;;;;;;4963470;28;20054;-94
2021/09/25 12:08:27;;;;;;;8.65;7.75;;;21.40;99.90;;;;;;4953527;28;20179;-93
2021/09/25 12:11:05;;;;;;;7.15;6.45;;;21.40;99.90;;;;;;4977380;28;20072;-93
2021/09/25 12:13:41;;;;;;;8.68;7.85;;;21.50;99.90;;;;;;4969618;28;20054;-96
2021/09/25 12:16:10;;;;;;;8.00;7.25;;;21.60;99.90;;;;;;4980351;28;20121;-95
2021/09/25 12:18:43;;;;;;;8.48;7.05;;;21.70;99.90;;;;;;4987833;28;20046;-92
2021/09/25 12:21:25;;;;;;;7.95;7.10;;;21.70;99.90;;;;;;4983827;28;20069;-92
2021/09/25 12:24:03;;;;;;;7.40;6.63;;;21.80;99.90;;;;;;4964274;28;20342;-94
2021/09/25 12:26:32;;;;;;;8.48;7.57;;;21.90;99.90;;;;;;4968357;28;20050;-93
2021/09/25 12:29:04;;;;;;;11.25;7.40;;;21.90;99.90;;;;;;4976282;28;20050;-94
2021/09/25 12:31:36;;;;;;;8.52;7.82;;;21.90;99.90;;;;;;4963897;28;20047;-94
2021/09/25 12:34:16;;;;;;;9.23;8.20;;;22.00;99.90;;;;;;4983708;28;20077;-94
2021/09/25 12:36:46;;;;;;;8.65;7.57;;;22.10;99.90;;;;;;4989150;28;20054;-94
2021/09/25 12:39:16;;;;;;;8.48;7.30;;;22.10;99.90;;;;;;4964961;28;20105;-94
2021/09/25 12:41:47;;;;;;;6.90;6.30;;;22.20;99.90;;;;;;4969028;28;20056;-94
2021/09/25 12:44:16;;;;;;;8.57;7.05;;;22.30;99.90;;;;;;4972904;28;20054;-94
2021/09/25 12:46:52;;;;;;;8.75;7.93;;;22.40;99.90;;;;;;4964531;28;20126;-94
2021/09/25 12:49:34;;;;;;;9.85;8.00;;;22.50;99.90;;;;;;4962129;28;20133;-95
2021/09/25 12:52:08;;;;;;;8.68;7.40;;;22.50;99.90;;;;;;4969416;28;20054;-93
2021/09/25 12:54:45;;;;;;;6.82;6.13;;;22.50;99.90;;;;;;4986736;28;20053;-94
2021/09/25 12:57:16;;;;;;;8.00;6.60;;;22.60;99.90;;;;;;4982520;28;20488;-93
2021/09/25 12:59:46;;;;;;;7.97;7.03;;;22.60;99.90;;;;;;4987400;28;20053;-95
2021/09/25 13:02:18;;;;;;;7.00;6.32;;;22.60;99.90;;;;;;5007887;28;20037;-95
2021/09/25 13:04:59;;;;;;;6.40;5.78;;;22.70;99.90;;;;;;4990210;28;20035;-95
2021/09/25 13:07:30;;;;;;;7.80;6.22;;;22.70;99.90;;;;;;5010491;28;20054;-94
2021/09/25 13:10:03;;;;;;;6.68;6.07;;;22.70;99.90;;;;;;4979852;28;20054;-93
2021/09/25 13:12:32;;;;;;;9.13;6.07;;;22.80;99.90;;;;;;4963936;28;20043;-94
2021/09/25 13:15:06;;;;;;;;;;;22.90;99.90;;;;;;4962394;28;20402;-94
2021/09/25 13:17:36;;;;;;;7.35;6.25;;;22.90;99.90;;;;;;4959643;28;19968;-94
2021/09/25 13:20:08;;;;;;;9.40;5.65;;;22.90;99.90;;;;;;4974612;28;20512;-90
2021/09/25 13:22:35;;;;;;;9.65;6.35;;;22.90;99.90;;;;;;4992727;28;20104;-89
2021/09/25 13:25:05;;;;;;;8.00;6.40;;;22.90;99.90;;;;;;4988782;28;20078;-93
2021/09/25 13:27:33;;;;;;;9.32;6.43;;;22.90;99.90;;;;;;4979227;28;20148;-92
2021/09/25 13:30:00;;;;;;;9.70;6.28;;;22.90;99.90;;;;;;4982176;28;20154;-95
2021/09/25 13:32:28;;;;;;;7.32;6.63;;;23.00;99.90;;;;;;4978952;28;20039;-92
2021/09/25 13:34:55;;;;;;;7.10;6.00;;;23.00;99.90;;;;;;4994111;28;20050;-94
2021/09/25 13:37:25;;;;;;;6.53;5.90;;;23.00;99.90;;;;;;4977818;28;20504;-95
2021/09/25 13:39:52;;;;;;;6.18;5.47;;;23.00;99.90;;;;;;4978559;28;20042;-95
2021/09/25 13:42:19;;;;;;;7.10;6.07;;;23.00;99.90;;;;;;4978042;28;20054;-96
2021/09/25 13:44:47;;;;;;;8.02;5.40;;;23.00;99.90;;;;;;4995699;28;20046;-93
2021/09/25 13:47:14;;;;;;;6.10;5.47;;;22.90;99.90;;;;;;4975414;28;20050;-96
2021/09/25 13:49:41;;;;;;;6.43;5.55;;;22.90;99.90;;;;;;4977327;28;20097;-95
2021/09/25 13:52:09;;;;;;;7.05;5.80;;;22.90;99.90;;;;;;4977612;28;20056;-94
2021/09/25 13:54:36;;;;;;;6.22;5.63;;;22.90;99.90;;;;;;4995311;28;20053;-94
2021/09/25 13:57:07;;;;;;;8.32;5.57;;;22.80;99.90;;;;;;4994926;28;20070;-93
2021/09/25 13:59:35;;;;;;;6.40;5.78;;;22.80;99.90;;;;;;4959959;28;20571;-93
2021/09/25 14:02:05;;;;;;;9.32;5.55;;;22.80;99.90;;;;;;4961922;28;20054;-94
2021/09/25 14:04:33;;;;;;;6.25;5.65;;;22.80;99.90;;;;;;4978041;28;20052;-92
2021/09/25 14:07:01;;;;;;;7.25;6.00;;;22.80;99.90;;;;;;4995334;28;20046;-92
2021/09/25 14:09:32;;;;;;;7.15;6.45;;;22.60;99.90;;;;;;4976901;28;20046;-91
2021/09/25 14:12:04;;;;;;;8.32;5.93;;;22.60;99.90;;;;;;4991321;28;20129;-92
2021/09/25 14:14:32;;;;;;;7.82;5.63;;;22.60;99.90;;;;;;4965418;28;20050;-91
2021/09/25 14:16:59;;;;;;;6.60;6.00;;;22.50;99.90;;;;;;4969046;28;20058;-92
2021/09/25 14:19:26;;;;;;;7.30;5.78;;;22.50;99.90;;;;;;4999914;28;20042;-93
2021/09/25 14:21:53;;;;;;;6.63;5.90;;;22.40;99.90;;;;;;4968915;28;20104;-93
2021/09/25 14:24:20;;;;;;;6.22;5.63;;;22.40;99.90;;;;;;4990060;28;20061;-86
2021/09/25 14:26:49;;;;;;;6.65;5.50;;;22.40;99.90;;;;;;4989812;28;20046;-85
2021/09/25 14:29:36;;;;;;;8.48;5.65;;;22.40;99.90;;;;;;4991573;28;20518;-83
2021/09/25 14:32:04;;;;;;;6.38;5.72;;;22.50;99.90;;;;;;4988754;28;20521;-85
2021/09/25 14:34:31;;;;;;;6.53;5.85;;;22.60;99.90;;;;;;4996254;28;20102;-85
2021/09/25 14:36:58;;;;;;;10.50;5.82;;;22.70;99.90;;;;;;4989847;28;20039;-86
2021/09/25 14:39:25;;;;;;;6.30;5.30;;;22.70;99.90;;;;;;4964428;28;20050;-86
2021/09/25 14:41:59;;;;;;;9.00;6.22;;;22.80;99.90;;;;;;5002190;28;20520;-86
2021/09/25 14:44:27;;;;;;;6.88;5.80;;;22.80;99.90;;;;;;4994484;28;20050;-86
2021/09/25 14:46:54;;;;;;;7.45;6.35;;;22.80;99.90;;;;;;5001352;28;20051;-86
2021/09/25 14:49:21;;;;;;;8.00;5.72;;;22.70;99.90;;;;;;4994486;28;20629;-85
2021/09/25 14:51:48;;;;;;;8.45;6.93;;;22.70;99.90;;;;;;5003487;28;20045;-88
2021/09/25 14:54:15;;;;;;;7.70;6.57;;;22.70;99.90;;;;;;5009380;28;20058;-87
2021/09/25 14:56:42;;;;;;;8.30;6.40;;;22.60;99.90;;;;;;5001556;28;20571;-84
2021/09/25 14:59:10;;;;;;;10.45;6.13;;;22.60;99.90;;;;;;4997442;28;20117;-85
2021/09/25 15:01:37;;;;;;;7.18;6.05;;;22.60;99.90;;;;;;4970369;28;20046;-85
2021/09/25 15:04:04;;;;;;;6.82;6.18;;;22.60;99.90;;;;;;5000755;28;24098;-84
2021/09/25 15:06:32;;;;;;;6.13;5.53;;;22.60;99.90;;;;;;5001521;28;20042;-85
2021/09/25 15:08:59;;;;;;;6.57;5.97;;;22.60;99.90;;;;;;4990951;28;20473;-86
2021/09/25 15:11:26;;;;;;;6.68;5.95;;;22.60;99.90;;;;;;4998497;28;20512;-85
2021/09/25 15:13:53;;;;;;;6.07;5.47;;;22.60;99.90;;;;;;4965075;28;20933;-86
2021/09/25 15:16:20;;;;;;;7.72;5.10;;;22.60;99.90;;;;;;5002369;28;20104;-85
2021/09/25 15:18:47;;;;;;;7.38;6.05;;;22.60;99.90;;;;;;4988181;28;20042;-84
2021/09/25 15:21:14;;;;;;;10.18;5.72;;;22.60;99.90;;;;;;4970610;28;20420;-88
2021/09/25 15:23:42;;;;;;;14.85;5.95;;;22.60;99.90;;;;;;4967576;28;20047;-86
2021/09/25 15:26:09;;;;;;;7.70;5.55;;;22.60;99.90;;;;;;5001041;28;20049;-89
2021/09/25 15:28:36;;;;;;;12.85;6.18;;;22.60;99.90;;;;;;4999592;28;20050;-88
2021/09/25 15:31:03;;;;;;;8.20;5.47;;;22.60;99.90;;;;;;4972707;28;20062;-89
2021/09/25 15:33:34;;;;;;;7.53;5.45;;;22.60;99.90;;;;;;4999329;28;20046;-87
2021/09/25 15:36:02;;;;;;;12.05;5.65;;;22.60;99.90;;;;;;4972037;28;20531;-84
2021/09/25 15:38:29;;;;;;;38.92;6.70;;;22.60;99.90;;;;;;4992576;28;20116;-84
2021/09/25 15:41:01;;;;;;;24.83;5.90;;;22.60;99.90;;;;;;4988416;28;20053;-84
2021/09/25 15:43:28;;;;;;;10.40;5.20;;;22.60;99.90;;;;;;4983449;28;20049;-88
2021/09/25 15:45:55;;;;;;;6.43;4.90;;;22.70;99.90;;;;;;5001984;28;20140;-85
2021/09/25 15:48:24;;;;;;;9.30;5.10;;;22.80;99.90;;;;;;4966548;28;20046;-85
2021/09/25 15:50:51;;;;;;;7.13;5.30;;;22.80;99.90;;;;;;4996797;28;20112;-85
2021/09/25 15:53:18;;;;;;;7.63;5.18;;;22.90;99.90;;;;;;5000193;28;20053;-85
2021/09/25 15:55:45;;;;;;;5.57;4.90;;;22.90;99.90;;;;;;5005936;28;20534;-85
2021/09/25 15:58:12;;;;;;;10.70;5.13;;;22.90;99.90;;;;;;5007944;28;20045;-85
2021/09/25 16:00:40;;;;;;;8.40;4.65;;;22.90;99.90;;;;;;5011296;28;20471;-86
2021/09/25 16:03:08;;;;;;;14.27;4.70;;;22.80;99.90;;;;;;5006772;28;20073;-86
2021/09/25 16:05:36;;;;;;;7.40;4.72;;;22.80;99.90;;;;;;4996879;28;20057;-87
2021/09/25 16:08:04;;;;;;;7.18;4.72;;;22.70;99.90;;;;;;4996752;28;20073;-85
2021/09/25 16:10:32;;;;;;;26.30;5.45;;;22.60;99.90;;;;;;5006369;28;20059;-85
2021/09/25 16:12:58;;;;;;;29.83;6.78;;;22.50;99.90;;;;;;4999757;28;20074;-87
2021/09/25 16:15:26;;;;;;;10.32;4.78;;;22.50;99.90;;;;;;5004707;28;20056;-86
2021/09/25 16:17:53;;;;;;;4.82;4.15;;;22.40;99.90;;;;;;5003831;28;20042;-86
2021/09/25 16:20:20;;;;;;;8.65;4.55;;;22.40;99.90;;;;;;5006303;28;20096;-85
2021/09/25 16:22:47;;;;;;;7.53;4.53;;;22.30;99.90;;;;;;4972096;28;20047;-86
2021/09/25 16:25:14;;;;;;;7.95;4.68;;;22.30;99.90;;;;;;5000429;28;20114;-82
2021/09/25 16:27:41;;;;;;;9.68;4.60;;;22.30;99.90;;;;;;5009217;28;20045;-86
2021/09/25 16:30:08;;;;;;;4.97;4.55;;;22.30;99.90;;;;;;4968596;28;20759;-87
2021/09/25 16:32:37;;;;;;;7.53;4.35;;;22.30;99.90;;;;;;5006234;28;20054;-89
2021/09/25 16:35:05;;;;;;;6.38;4.22;;;22.30;99.90;;;;;;4977031;28;20051;-89
2021/09/25 16:37:33;;;;;;;7.85;4.20;;;22.30;99.90;;;;;;4985961;28;20055;-88
2021/09/25 16:40:01;;;;;;;7.57;4.70;;;22.20;99.90;;;;;;4971155;28;20061;-88
2021/09/25 16:42:28;;;;;;;5.18;3.70;;;22.20;99.90;;;;;;5007931;28;20041;-88
2021/09/25 16:44:55;;;;;;;7.05;4.22;;;22.10;99.90;;;;;;5009338;28;20068;-89
2021/09/25 16:47:21;;;;;;;5.53;4.13;;;22.00;99.90;;;;;;4974641;28;20074;-89
2021/09/25 16:49:48;;;;;;;6.20;4.25;;;21.90;99.90;;;;;;5002862;28;20053;-90
2021/09/25 16:52:15;;;;;;;7.20;4.28;;;21.80;99.90;;;;;;5003403;28;20046;-89
2021/09/25 16:54:42;;;;;;;9.80;4.10;;;21.70;99.90;;;;;;4976297;28;20042;-89
2021/09/25 16:57:09;;;;;;;7.95;3.70;;;21.60;99.90;;;;;;5012140;28;20056;-89
2021/09/25 16:59:36;;;;;;;6.05;4.13;;;21.60;99.90;;;;;;5007528;28;20057;-91
2021/09/25 17:02:11;;;;;;;4.40;3.80;;;21.50;99.90;;;;;;4992928;28;20108;-88
2021/09/25 17:04:38;;;;;;;5.97;4.47;;;21.40;99.90;;;;;;4972347;28;20527;-90
2021/09/25 17:07:08;;;;;;;8.68;4.07;;;21.30;99.90;;;;;;4970868;28;20090;-89
2021/09/25 17:09:36;;;;;;;6.78;4.18;;;21.20;99.90;;;;;;4985930;28;20129;-89
2021/09/25 17:12:03;;;;;;;6.65;3.90;;;21.10;99.90;;;;;;4987422;28;20049;-91
2021/09/25 17:14:30;;;;;;;7.15;3.90;;;21.00;99.90;;;;;;4991474;28;20049;-89
2021/09/25 17:16:57;;;;;;;8.65;4.15;;;21.00;99.90;;;;;;4989547;28;20050;-92
2021/09/25 17:19:25;;;;;;;6.18;3.85;;;20.90;99.90;;;;;;4988918;28;20517;-89
2021/09/25 17:21:52;;;;;;;6.25;4.18;;;20.90;99.90;;;;;;4969667;28;20050;-91
2021/09/25 17:24:19;;;;;;;6.20;4.47;;;20.80;99.90;;;;;;4967101;28;20110;-90
2021/09/25 17:26:47;;;;;;;6.63;4.35;;;20.70;99.90;;;;;;4985870;28;20050;-88
2021/09/25 17:29:14;;;;;;;7.97;4.00;;;20.60;99.90;;;;;;4985724;28;20098;-88
2021/09/25 17:31:41;;;;;;;5.97;3.85;;;20.60;99.90;;;;;;4986395;28;20110;-89
2021/09/25 17:34:08;;;;;;;8.20;4.25;;;20.60;99.90;;;;;;4981463;28;20055;-89
2021/09/25 17:36:35;;;;;;;7.03;4.68;;;20.50;99.90;;;;;;4991770;28;20046;-90
2021/09/25 17:39:02;;;;;;;7.03;4.40;;;20.40;99.90;;;;;;4981634;28;20110;-90
2021/09/25 17:41:29;;;;;;;5.82;4.22;;;20.40;99.90;;;;;;4983577;28;20127;-90
2021/09/25 17:43:56;;;;;;;9.20;4.13;;;20.30;99.90;;;;;;4985759;28;20130;-90
2021/09/25 17:46:23;;;;;;;6.28;4.32;;;20.30;99.90;;;;;;4987397;28;20050;-88
2021/09/25 17:48:50;;;;;;;6.57;5.28;;;20.30;99.90;;;;;;4986269;28;20129;-88
2021/09/25 17:51:17;;;;;;;6.60;4.50;;;20.20;99.90;;;;;;4988976;28;20050;-88
2021/09/25 17:53:44;;;;;;;5.93;4.35;;;20.20;99.90;;;;;;4983682;28;20047;-89
2021/09/25 17:56:14;;;;;;;9.23;4.90;;;20.10;99.90;;;;;;4981923;28;20110;-88
2021/09/25 17:58:41;;;;;;;7.13;4.93;;;20.10;99.90;;;;;;4988300;28;20530;-89
2021/09/25 18:01:11;;;;;;;7.00;5.18;;;20.10;99.90;;;;;;4978553;28;20047;-89
2021/09/25 18:03:39;;;;;;;7.20;4.25;;;20.00;99.90;;;;;;4963242;28;20161;-89
2021/09/25 18:06:08;;;;;;;6.05;4.40;;;20.00;99.90;;;;;;4964530;28;20082;-89
2021/09/25 18:08:35;;;;;;;7.72;4.50;;;20.00;99.90;;;;;;4986459;28;20049;-89
2021/09/25 18:11:02;;;;;;;7.20;5.05;;;20.00;99.90;;;;;;4980221;28;20112;-86
2021/09/25 18:13:30;;;;;;;5.97;4.72;;;20.00;99.90;;;;;;4980754;28;20054;-86
2021/09/25 18:15:57;;;;;;;10.75;5.57;;;19.90;99.90;;;;;;4981465;28;20043;-87
2021/09/25 18:18:24;;;;;;;5.80;4.95;;;19.90;99.90;;;;;;4982964;28;20046;-87
2021/09/25 18:20:51;;;;;;;7.15;4.68;;;19.90;99.90;;;;;;4987878;28;20064;-87
2021/09/25 18:23:18;;;;;;;9.85;5.90;;;19.90;99.90;;;;;;4957113;28;20710;-88
2021/09/25 18:25:45;;;;;;;8.05;5.65;;;19.80;99.90;;;;;;4962572;28;20116;-89
2021/09/25 18:28:14;;;;;;;6.25;5.30;;;19.80;99.90;;;;;;4975503;28;20042;-86
2021/09/25 18:30:43;;;;;;;6.63;5.75;;;19.80;99.90;;;;;;4958450;28;20046;-90
2021/09/25 18:33:11;;;;;;;9.75;5.45;;;19.80;99.90;;;;;;4980990;28;20050;-89
2021/09/25 18:35:40;;;;;;;8.23;5.35;;;19.70;99.90;;;;;;4981948;28;20042;-89
2021/09/25 18:38:08;;;;;;;7.55;5.70;;;19.70;99.90;;;;;;4965732;28;20046;-89
2021/09/25 18:40:37;;;;;;;11.32;5.38;;;19.70;99.90;;;;;;4986335;28;20485;-90
2021/09/25 18:43:05;;;;;;;7.70;4.88;;;19.70;99.90;;;;;;4979807;28;20062;-89
2021/09/25 18:45:36;;;;;;;8.13;5.88;;;19.70;99.90;;;;;;4985145;28;20054;-89
2021/09/25 18:48:03;;;;;;;6.40;5.57;;;19.70;99.90;;;;;;4984193;28;20154;-90
2021/09/25 18:50:30;;;;;;;7.57;5.47;;;19.60;99.90;;;;;;4974740;28;20047;-89
2021/09/25 18:52:57;;;;;;;8.88;5.78;;;19.60;99.90;;;;;;4987529;28;20046;-89
2021/09/25 18:55:24;;;;;;;7.65;5.00;;;19.60;99.90;;;;;;4981479;28;20703;-89